sensor_id;sensor_type;location;lat;lon;timestamp;pressure;altitude;pressure_sealevel;temperature;humidity
68376;BME280;55318;52.068;5.188;2023-03-15T00:00:17;101191.0;;;4.89;90.08
68376;BME280;55318;52.068;5.188;2023-03-15T00:03:29;101193.0;;;4.91;90.12
68376;BME280;55318;52.068;5.188;2023-03-15T00:05:06;101200.0;;;4.82;90.4
68376;BME280;55318;52.068;5.188;2023-03-15T00:06:42;101202.0;;;4.55;91.21
68376;BME280;55318;52.068;5.188;2023-03-15T00:09:56;101205.0;;;4.7;90.84
68376;BME280;55318;52.068;5.188;2023-03-15T00:11:33;101206.0;;;4.71;90.61
68376;BME280;55318;52.068;5.188;2023-03-15T00:13:10;101205.0;;;4.59;91.44
68376;BME280;55318;52.068;5.188;2023-03-15T00:14:47;101209.0;;;4.64;90.94
68376;BME280;55318;52.068;5.188;2023-03-15T00:18:00;101211.0;;;4.53;91.44
68376;BME280;55318;52.068;5.188;2023-03-15T00:19:36;101215.0;;;4.46;91.26
68376;BME280;55318;52.068;5.188;2023-03-15T00:21:13;101212.0;;;4.37;91.14
68376;BME280;55318;52.068;5.188;2023-03-15T00:24:26;101214.0;;;4.26;91.6
68376;BME280;55318;52.068;5.188;2023-03-15T00:26:02;101207.0;;;4.13;92.0
68376;BME280;55318;52.068;5.188;2023-03-15T00:27:39;101200.0;;;4.1;92.57
68376;BME280;55318;52.068;5.188;2023-03-15T00:31:01;101205.0;;;4.14;92.58
68376;BME280;55318;52.068;5.188;2023-03-15T00:32:39;101200.0;;;4.0;92.19
68376;BME280;55318;52.068;5.188;2023-03-15T00:34:15;101199.0;;;4.13;91.72
68376;BME280;55318;52.068;5.188;2023-03-15T00:35:51;101202.0;;;4.14;91.69
68376;BME280;55318;52.068;5.188;2023-03-15T00:39:04;101205.0;;;3.98;92.11
68376;BME280;55318;52.068;5.188;2023-03-15T00:40:40;101209.0;;;3.95;91.98
68376;BME280;55318;52.068;5.188;2023-03-15T00:42:16;101219.0;;;3.87;92.02
68376;BME280;55318;52.068;5.188;2023-03-15T00:45:28;101219.0;;;3.76;92.4
68376;BME280;55318;52.068;5.188;2023-03-15T00:47:04;101220.0;;;3.74;92.76
68376;BME280;55318;52.068;5.188;2023-03-15T00:48:41;101218.0;;;3.78;92.69
68376;BME280;55318;52.068;5.188;2023-03-15T00:51:54;101219.0;;;3.57;93.35
68376;BME280;55318;52.068;5.188;2023-03-15T00:53:31;101221.0;;;3.5;93.84
68376;BME280;55318;52.068;5.188;2023-03-15T00:55:09;101226.0;;;3.64;93.45
68376;BME280;55318;52.068;5.188;2023-03-15T00:56:46;101228.0;;;3.6;93.7
68376;BME280;55318;52.068;5.188;2023-03-15T00:59:59;101235.0;;;3.67;93.93
68376;BME280;55318;52.068;5.188;2023-03-15T01:01:36;101238.0;;;3.65;93.2
68376;BME280;55318;52.068;5.188;2023-03-15T01:03:12;101241.0;;;3.73;93.49
68376;BME280;55318;52.068;5.188;2023-03-15T01:06:26;101243.0;;;3.71;93.61
68376;BME280;55318;52.068;5.188;2023-03-15T01:08:04;101246.0;;;3.75;93.72
68376;BME280;55318;52.068;5.188;2023-03-15T01:09:39;101251.0;;;3.7;93.9
68376;BME280;55318;52.068;5.188;2023-03-15T01:11:17;101255.0;;;3.7;94.05
68376;BME280;55318;52.068;5.188;2023-03-15T01:14:31;101257.0;;;3.75;94.0
68376;BME280;55318;52.068;5.188;2023-03-15T01:16:08;101256.0;;;3.63;94.47
68376;BME280;55318;52.068;5.188;2023-03-15T01:17:46;101248.0;;;3.65;94.84
68376;BME280;55318;52.068;5.188;2023-03-15T01:20:58;101244.0;;;3.7;94.89
68376;BME280;55318;52.068;5.188;2023-03-15T01:22:35;101249.0;;;3.82;94.5
68376;BME280;55318;52.068;5.188;2023-03-15T01:24:12;101247.0;;;3.86;94.85
68376;BME280;55318;52.068;5.188;2023-03-15T01:27:28;101255.0;;;3.8;95.25
68376;BME280;55318;52.068;5.188;2023-03-15T01:29:04;101259.0;;;3.66;95.45
68376;BME280;55318;52.068;5.188;2023-03-15T01:30:40;101260.0;;;3.74;95.34
68376;BME280;55318;52.068;5.188;2023-03-15T01:32:25;101265.0;;;3.78;95.05
68376;BME280;55318;52.068;5.188;2023-03-15T01:35:37;101268.0;;;3.72;95.86
68376;BME280;55318;52.068;5.188;2023-03-15T01:37:13;101270.0;;;3.69;95.78
68376;BME280;55318;52.068;5.188;2023-03-15T01:38:50;101273.0;;;3.64;95.83
68376;BME280;55318;52.068;5.188;2023-03-15T01:42:02;101278.0;;;3.64;95.53
68376;BME280;55318;52.068;5.188;2023-03-15T01:43:38;101284.0;;;3.6;95.68
68376;BME280;55318;52.068;5.188;2023-03-15T01:45:52;101289.0;;;3.66;95.85
68376;BME280;55318;52.068;5.188;2023-03-15T01:47:31;101294.0;;;3.77;95.59
68376;BME280;55318;52.068;5.188;2023-03-15T01:49:10;101293.0;;;3.86;95.16
68376;BME280;55318;52.068;5.188;2023-03-15T01:52:28;101291.0;;;4.03;95.2
68376;BME280;55318;52.068;5.188;2023-03-15T01:54:09;101290.0;;;3.95;95.12
68376;BME280;55318;52.068;5.188;2023-03-15T01:55:53;101294.0;;;3.86;95.83
68376;BME280;55318;52.068;5.188;2023-03-15T01:57:33;101292.0;;;3.84;96.16
68376;BME280;55318;52.068;5.188;2023-03-15T02:00:55;101295.0;;;3.8;96.05
68376;BME280;55318;52.068;5.188;2023-03-15T02:02:31;101291.0;;;3.93;95.35
68376;BME280;55318;52.068;5.188;2023-03-15T02:04:11;101300.0;;;3.83;95.72
68376;BME280;55318;52.068;5.188;2023-03-15T02:05:51;101301.0;;;3.75;95.45
68376;BME280;55318;52.068;5.188;2023-03-15T02:09:09;101299.0;;;3.76;95.25
68376;BME280;55318;52.068;5.188;2023-03-15T02:10:49;101305.0;;;3.81;95.25
68376;BME280;55318;52.068;5.188;2023-03-15T02:12:27;101303.0;;;3.77;95.36
68376;BME280;55318;52.068;5.188;2023-03-15T02:14:06;101305.0;;;3.82;95.01
68376;BME280;55318;52.068;5.188;2023-03-15T02:17:27;101310.0;;;3.73;94.8
68376;BME280;55318;52.068;5.188;2023-03-15T02:19:11;101310.0;;;3.6;94.86
68376;BME280;55318;52.068;5.188;2023-03-15T02:21:02;101313.0;;;3.58;94.93
68376;BME280;55318;52.068;5.188;2023-03-15T02:22:51;101314.0;;;3.63;94.88
68376;BME280;55318;52.068;5.188;2023-03-15T02:24:34;101313.0;;;3.58;94.88
68376;BME280;55318;52.068;5.188;2023-03-15T02:28:01;101317.0;;;3.71;94.72
68376;BME280;55318;52.068;5.188;2023-03-15T02:29:40;101316.0;;;3.8;94.16
68376;BME280;55318;52.068;5.188;2023-03-15T02:31:16;101319.0;;;3.6;94.39
68376;BME280;55318;52.068;5.188;2023-03-15T02:36:14;101323.0;;;3.53;94.48
68376;BME280;55318;52.068;5.188;2023-03-15T02:37:52;101326.0;;;3.48;94.34
68376;BME280;55318;52.068;5.188;2023-03-15T02:39:28;101330.0;;;3.44;94.26
68376;BME280;55318;52.068;5.188;2023-03-15T02:42:41;101333.0;;;3.34;94.54
68376;BME280;55318;52.068;5.188;2023-03-15T02:44:21;101336.0;;;3.22;94.55
68376;BME280;55318;52.068;5.188;2023-03-15T02:45:59;101337.0;;;3.27;94.69
68376;BME280;55318;52.068;5.188;2023-03-15T02:47:37;101344.0;;;3.17;95.0
68376;BME280;55318;52.068;5.188;2023-03-15T02:50:53;101349.0;;;3.28;95.17
68376;BME280;55318;52.068;5.188;2023-03-15T02:52:29;101356.0;;;3.42;95.11
68376;BME280;55318;52.068;5.188;2023-03-15T02:54:05;101359.0;;;3.36;95.41
68376;BME280;55318;52.068;5.188;2023-03-15T02:57:18;101365.0;;;3.38;95.94
68376;BME280;55318;52.068;5.188;2023-03-15T02:58:55;101372.0;;;3.42;96.05
68376;BME280;55318;52.068;5.188;2023-03-15T03:00:31;101378.0;;;3.41;96.72
68376;BME280;55318;52.068;5.188;2023-03-15T03:02:08;101371.0;;;3.4;96.75
68376;BME280;55318;52.068;5.188;2023-03-15T03:05:22;101377.0;;;3.46;96.98
68376;BME280;55318;52.068;5.188;2023-03-15T03:06:58;101380.0;;;3.68;96.27
68376;BME280;55318;52.068;5.188;2023-03-15T03:08:34;101377.0;;;3.75;95.88
68376;BME280;55318;52.068;5.188;2023-03-15T03:11:52;101382.0;;;3.87;95.7
68376;BME280;55318;52.068;5.188;2023-03-15T03:13:28;101387.0;;;3.88;95.3
68376;BME280;55318;52.068;5.188;2023-03-15T03:15:05;101388.0;;;3.79;95.35
68376;BME280;55318;52.068;5.188;2023-03-15T03:18:18;101390.0;;;3.88;95.01
68376;BME280;55318;52.068;5.188;2023-03-15T03:19:54;101397.0;;;3.94;94.58
68376;BME280;55318;52.068;5.188;2023-03-15T03:21:31;101401.0;;;3.71;94.33
68376;BME280;55318;52.068;5.188;2023-03-15T03:23:07;101409.0;;;3.7;94.59
68376;BME280;55318;52.068;5.188;2023-03-15T03:26:20;101412.0;;;3.59;94.47
68376;BME280;55318;52.068;5.188;2023-03-15T03:27:57;101408.0;;;3.48;94.79
68376;BME280;55318;52.068;5.188;2023-03-15T03:29:33;101413.0;;;3.39;94.87
68376;BME280;55318;52.068;5.188;2023-03-15T03:32:53;101414.0;;;3.33;94.92
68376;BME280;55318;52.068;5.188;2023-03-15T03:34:29;101418.0;;;3.26;94.86
68376;BME280;55318;52.068;5.188;2023-03-15T03:36:06;101424.0;;;3.23;94.99
68376;BME280;55318;52.068;5.188;2023-03-15T03:37:42;101432.0;;;3.24;95.03
68376;BME280;55318;52.068;5.188;2023-03-15T03:40:55;101430.0;;;3.17;95.0
68376;BME280;55318;52.068;5.188;2023-03-15T03:42:31;101437.0;;;3.1;95.12
68376;BME280;55318;52.068;5.188;2023-03-15T03:44:07;101444.0;;;3.06;95.01
68376;BME280;55318;52.068;5.188;2023-03-15T03:47:19;101453.0;;;3.17;95.04
68376;BME280;55318;52.068;5.188;2023-03-15T03:48:55;101457.0;;;3.15;95.23
68376;BME280;55318;52.068;5.188;2023-03-15T03:50:31;101455.0;;;3.13;95.18
68376;BME280;55318;52.068;5.188;2023-03-15T03:53:44;101455.0;;;3.04;95.04
68376;BME280;55318;52.068;5.188;2023-03-15T03:55:20;101452.0;;;3.2;95.16
68376;BME280;55318;52.068;5.188;2023-03-15T03:56:56;101450.0;;;3.11;95.6
68376;BME280;55318;52.068;5.188;2023-03-15T04:00:11;101451.0;;;3.18;95.36
68376;BME280;55318;52.068;5.188;2023-03-15T04:01:48;101458.0;;;3.13;95.66
68376;BME280;55318;52.068;5.188;2023-03-15T04:03:24;101462.0;;;3.18;95.72
68376;BME280;55318;52.068;5.188;2023-03-15T04:05:01;101462.0;;;3.14;95.93
68376;BME280;55318;52.068;5.188;2023-03-15T04:08:14;101462.0;;;3.08;96.02
68376;BME280;55318;52.068;5.188;2023-03-15T04:09:50;101469.0;;;3.02;96.02
68376;BME280;55318;52.068;5.188;2023-03-15T04:11:26;101462.0;;;3.11;96.0
68376;BME280;55318;52.068;5.188;2023-03-15T04:14:38;101467.0;;;2.92;95.83
68376;BME280;55318;52.068;5.188;2023-03-15T04:16:14;101469.0;;;2.93;96.13
68376;BME280;55318;52.068;5.188;2023-03-15T04:17:51;101476.0;;;2.98;96.41
68376;BME280;55318;52.068;5.188;2023-03-15T04:21:04;101483.0;;;2.95;96.52
68376;BME280;55318;52.068;5.188;2023-03-15T04:22:41;101484.0;;;2.87;96.9
68376;BME280;55318;52.068;5.188;2023-03-15T04:24:17;101491.0;;;2.95;96.94
68376;BME280;55318;52.068;5.188;2023-03-15T04:25:53;101491.0;;;2.92;97.12
68376;BME280;55318;52.068;5.188;2023-03-15T04:29:09;101496.0;;;2.93;97.07
68376;BME280;55318;52.068;5.188;2023-03-15T04:30:47;101492.0;;;2.88;97.18
68376;BME280;55318;52.068;5.188;2023-03-15T04:32:23;101499.0;;;2.97;96.64
68376;BME280;55318;52.068;5.188;2023-03-15T04:35:37;101501.0;;;2.91;96.95
68376;BME280;55318;52.068;5.188;2023-03-15T04:37:13;101500.0;;;2.84;96.94
68376;BME280;55318;52.068;5.188;2023-03-15T04:38:49;101502.0;;;2.8;96.88
68376;BME280;55318;52.068;5.188;2023-03-15T04:42:03;101505.0;;;2.77;96.52
68376;BME280;55318;52.068;5.188;2023-03-15T04:43:39;101507.0;;;2.73;96.73
68376;BME280;55318;52.068;5.188;2023-03-15T04:45:17;101510.0;;;2.66;96.44
68376;BME280;55318;52.068;5.188;2023-03-15T04:46:55;101512.0;;;2.69;96.39
68376;BME280;55318;52.068;5.188;2023-03-15T04:50:08;101514.0;;;2.63;96.32
68376;BME280;55318;52.068;5.188;2023-03-15T04:51:44;101517.0;;;2.54;96.34
68376;BME280;55318;52.068;5.188;2023-03-15T04:53:20;101520.0;;;2.58;96.68
68376;BME280;55318;52.068;5.188;2023-03-15T04:56:32;101526.0;;;2.56;96.79
68376;BME280;55318;52.068;5.188;2023-03-15T04:58:08;101530.0;;;2.46;96.48
68376;BME280;55318;52.068;5.188;2023-03-15T04:59:45;101531.0;;;2.46;96.53
68376;BME280;55318;52.068;5.188;2023-03-15T05:03:03;101535.0;;;2.46;96.48
68376;BME280;55318;52.068;5.188;2023-03-15T05:04:39;101533.0;;;2.42;96.64
68376;BME280;55318;52.068;5.188;2023-03-15T05:06:15;101536.0;;;2.44;96.88
68376;BME280;55318;52.068;5.188;2023-03-15T05:07:52;101543.0;;;2.39;97.12
68376;BME280;55318;52.068;5.188;2023-03-15T05:11:05;101546.0;;;2.39;96.94
68376;BME280;55318;52.068;5.188;2023-03-15T05:12:41;101555.0;;;2.4;97.57
68376;BME280;55318;52.068;5.188;2023-03-15T05:14:17;101555.0;;;2.41;97.75
68376;BME280;55318;52.068;5.188;2023-03-15T05:17:29;101558.0;;;2.4;97.5
68376;BME280;55318;52.068;5.188;2023-03-15T05:19:05;101557.0;;;2.44;97.73
68376;BME280;55318;52.068;5.188;2023-03-15T05:20:41;101556.0;;;2.42;97.75
68376;BME280;55318;52.068;5.188;2023-03-15T05:22:17;101553.0;;;2.42;97.71
68376;BME280;55318;52.068;5.188;2023-03-15T05:25:30;101560.0;;;2.46;98.02
68376;BME280;55318;52.068;5.188;2023-03-15T05:27:06;101561.0;;;2.5;98.11
68376;BME280;55318;52.068;5.188;2023-03-15T05:28:42;101563.0;;;2.5;98.12
68376;BME280;55318;52.068;5.188;2023-03-15T05:31:54;101566.0;;;2.52;98.04
68376;BME280;55318;52.068;5.188;2023-03-15T05:33:30;101567.0;;;2.54;97.95
68376;BME280;55318;52.068;5.188;2023-03-15T05:35:07;101572.0;;;2.58;98.51
68376;BME280;55318;52.068;5.188;2023-03-15T05:38:20;101575.0;;;2.61;98.6
68376;BME280;55318;52.068;5.188;2023-03-15T05:39:56;101580.0;;;2.73;98.62
68376;BME280;55318;52.068;5.188;2023-03-15T05:41:32;101584.0;;;2.75;98.67
68376;BME280;55318;52.068;5.188;2023-03-15T05:46:22;101585.0;;;3.02;97.55
68376;BME280;55318;52.068;5.188;2023-03-15T05:47:58;101594.0;;;2.97;97.67
68376;BME280;55318;52.068;5.188;2023-03-15T05:49:34;101601.0;;;3.0;98.03
68376;BME280;55318;52.068;5.188;2023-03-15T05:52:49;101609.0;;;2.97;98.05
68376;BME280;55318;52.068;5.188;2023-03-15T05:54:25;101612.0;;;3.01;98.4
68376;BME280;55318;52.068;5.188;2023-03-15T05:56:01;101617.0;;;2.98;98.14
68376;BME280;55318;52.068;5.188;2023-03-15T05:59:13;101620.0;;;2.98;98.25
68376;BME280;55318;52.068;5.188;2023-03-15T06:00:49;101617.0;;;3.15;97.58
68376;BME280;55318;52.068;5.188;2023-03-15T06:02:25;101622.0;;;3.28;96.41
68376;BME280;55318;52.068;5.188;2023-03-15T06:05:38;101630.0;;;3.45;95.62
68376;BME280;55318;52.068;5.188;2023-03-15T06:07:14;101630.0;;;3.57;95.16
68376;BME280;55318;52.068;5.188;2023-03-15T06:08:50;101636.0;;;3.82;94.76
68376;BME280;55318;52.068;5.188;2023-03-15T06:10:26;101630.0;;;3.58;94.46
68376;BME280;55318;52.068;5.188;2023-03-15T06:13:39;101638.0;;;3.81;94.27
68376;BME280;55318;52.068;5.188;2023-03-15T06:15:15;101645.0;;;3.94;93.99
68376;BME280;55318;52.068;5.188;2023-03-15T06:16:52;101640.0;;;3.94;93.24
68376;BME280;55318;52.068;5.188;2023-03-15T06:20:06;101635.0;;;4.03;93.28
68376;BME280;55318;52.068;5.188;2023-03-15T06:21:43;101637.0;;;4.05;92.73
68376;BME280;55318;52.068;5.188;2023-03-15T06:23:19;101644.0;;;3.86;92.97
68376;BME280;55318;52.068;5.188;2023-03-15T06:26:31;101653.0;;;4.14;92.59
68376;BME280;55318;52.068;5.188;2023-03-15T06:28:07;101657.0;;;3.86;93.01
68376;BME280;55318;52.068;5.188;2023-03-15T06:29:43;101658.0;;;3.71;94.08
68376;BME280;55318;52.068;5.188;2023-03-15T06:31:20;101664.0;;;3.6;95.23
68376;BME280;55318;52.068;5.188;2023-03-15T06:34:32;101670.0;;;3.63;95.64
68376;BME280;55318;52.068;5.188;2023-03-15T06:36:09;101672.0;;;3.63;95.96
68376;BME280;55318;52.068;5.188;2023-03-15T06:37:45;101680.0;;;3.7;96.48
68376;BME280;55318;52.068;5.188;2023-03-15T06:40:59;101681.0;;;3.72;95.84
68376;BME280;55318;52.068;5.188;2023-03-15T06:42:36;101684.0;;;3.77;95.53
68376;BME280;55318;52.068;5.188;2023-03-15T06:44:12;101685.0;;;3.9;95.42
68376;BME280;55318;52.068;5.188;2023-03-15T06:47:26;101698.0;;;4.2;96.17
68376;BME280;55318;52.068;5.188;2023-03-15T06:49:02;101702.0;;;4.22;95.82
68376;BME280;55318;52.068;5.188;2023-03-15T06:50:38;101705.0;;;4.37;96.25
68376;BME280;55318;52.068;5.188;2023-03-15T06:52:15;101711.0;;;4.82;95.76
68376;BME280;55318;52.068;5.188;2023-03-15T06:55:28;101717.0;;;4.89;94.23
68376;BME280;55318;52.068;5.188;2023-03-15T06:57:06;101711.0;;;5.03;91.77
68376;BME280;55318;52.068;5.188;2023-03-15T06:58:42;101716.0;;;4.76;91.54
68376;BME280;55318;52.068;5.188;2023-03-15T07:01:55;101717.0;;;4.78;92.14
68376;BME280;55318;52.068;5.188;2023-03-15T07:03:31;101726.0;;;4.63;91.25
68376;BME280;55318;52.068;5.188;2023-03-15T07:05:08;101726.0;;;4.59;90.16
68376;BME280;55318;52.068;5.188;2023-03-15T07:08:21;101730.0;;;4.64;92.25
68376;BME280;55318;52.068;5.188;2023-03-15T07:09:59;101731.0;;;4.76;92.23
68376;BME280;55318;52.068;5.188;2023-03-15T07:11:36;101732.0;;;4.87;92.42
68376;BME280;55318;52.068;5.188;2023-03-15T07:13:12;101735.0;;;5.07;91.76
68376;BME280;55318;52.068;5.188;2023-03-15T07:16:24;101732.0;;;5.14;91.02
68376;BME280;55318;52.068;5.188;2023-03-15T07:18:00;101732.0;;;5.26;91.08
68376;BME280;55318;52.068;5.188;2023-03-15T07:19:36;101736.0;;;5.7;88.23
68376;BME280;55318;52.068;5.188;2023-03-15T07:22:49;101734.0;;;5.7;87.5
68376;BME280;55318;52.068;5.188;2023-03-15T07:24:25;101740.0;;;6.03;85.27
68376;BME280;55318;52.068;5.188;2023-03-15T07:26:01;101743.0;;;6.42;83.22
68376;BME280;55318;52.068;5.188;2023-03-15T07:29:14;101745.0;;;6.64;79.98
68376;BME280;55318;52.068;5.188;2023-03-15T07:30:51;101744.0;;;6.78;78.13
68376;BME280;55318;52.068;5.188;2023-03-15T07:32:28;101750.0;;;6.95;79.34
68376;BME280;55318;52.068;5.188;2023-03-15T07:35:40;101755.0;;;6.73;81.12
68376;BME280;55318;52.068;5.188;2023-03-15T07:37:16;101763.0;;;6.61;81.38
68376;BME280;55318;52.068;5.188;2023-03-15T07:38:52;101763.0;;;6.59;80.36
68376;BME280;55318;52.068;5.188;2023-03-15T07:40:28;101768.0;;;6.87;79.33
68376;BME280;55318;52.068;5.188;2023-03-15T07:43:40;101769.0;;;6.73;79.69
68376;BME280;55318;52.068;5.188;2023-03-15T07:45:16;101781.0;;;6.68;79.5
68376;BME280;55318;52.068;5.188;2023-03-15T07:46:52;101777.0;;;6.97;80.45
68376;BME280;55318;52.068;5.188;2023-03-15T07:50:07;101778.0;;;7.31;82.7
68376;BME280;55318;52.068;5.188;2023-03-15T07:51:43;101781.0;;;7.44;77.42
68376;BME280;55318;52.068;5.188;2023-03-15T07:53:20;101785.0;;;7.69;77.86
68376;BME280;55318;52.068;5.188;2023-03-15T07:56:32;101789.0;;;8.02;75.5
68376;BME280;55318;52.068;5.188;2023-03-15T07:58:08;101790.0;;;7.98;74.72
68376;BME280;55318;52.068;5.188;2023-03-15T07:59:44;101796.0;;;7.89;76.5
68376;BME280;55318;52.068;5.188;2023-03-15T08:01:20;101800.0;;;8.26;74.72
68376;BME280;55318;52.068;5.188;2023-03-15T08:04:33;101809.0;;;9.01;71.3
68376;BME280;55318;52.068;5.188;2023-03-15T08:06:10;101809.0;;;9.48;68.59
68376;BME280;55318;52.068;5.188;2023-03-15T08:07:46;101813.0;;;9.36;70.37
68376;BME280;55318;52.068;5.188;2023-03-15T08:10:59;101817.0;;;9.24;68.36
68376;BME280;55318;52.068;5.188;2023-03-15T08:12:35;101823.0;;;9.48;67.48
68376;BME280;55318;52.068;5.188;2023-03-15T08:14:11;101818.0;;;9.81;63.54
68376;BME280;55318;52.068;5.188;2023-03-15T08:17:23;101820.0;;;9.93;59.97
68376;BME280;55318;52.068;5.188;2023-03-15T08:19:00;101819.0;;;9.93;64.92
68376;BME280;55318;52.068;5.188;2023-03-15T08:20:36;101824.0;;;9.83;68.66
68376;BME280;55318;52.068;5.188;2023-03-15T08:22:12;101830.0;;;9.94;64.52
68376;BME280;55318;52.068;5.188;2023-03-15T08:25:25;101826.0;;;10.23;64.88
68376;BME280;55318;52.068;5.188;2023-03-15T08:27:01;101831.0;;;9.82;63.56
68376;BME280;55318;52.068;5.188;2023-03-15T08:28:38;101832.0;;;10.23;59.98
68376;BME280;55318;52.068;5.188;2023-03-15T08:31:53;101835.0;;;10.34;65.95
68376;BME280;55318;52.068;5.188;2023-03-15T08:33:29;101836.0;;;10.63;62.4
68376;BME280;55318;52.068;5.188;2023-03-15T08:35:06;101844.0;;;10.54;58.9
68376;BME280;55318;52.068;5.188;2023-03-15T08:38:21;101845.0;;;10.69;59.45
68376;BME280;55318;52.068;5.188;2023-03-15T08:39:57;101849.0;;;10.72;60.02
68376;BME280;55318;52.068;5.188;2023-03-15T08:41:33;101855.0;;;10.37;62.18
68376;BME280;55318;52.068;5.188;2023-03-15T08:43:09;101851.0;;;10.86;66.83
68376;BME280;55318;52.068;5.188;2023-03-15T08:46:22;101858.0;;;10.93;67.14
68376;BME280;55318;52.068;5.188;2023-03-15T08:47:59;101859.0;;;10.8;60.94
68376;BME280;55318;52.068;5.188;2023-03-15T08:49:35;101856.0;;;10.89;61.83
68376;BME280;55318;52.068;5.188;2023-03-15T08:52:47;101859.0;;;10.97;58.97
68376;BME280;55318;52.068;5.188;2023-03-15T08:54:23;101859.0;;;11.16;59.64
68376;BME280;55318;52.068;5.188;2023-03-15T08:56:00;101857.0;;;10.88;59.24
68376;BME280;55318;52.068;5.188;2023-03-15T08:59:13;101860.0;;;11.27;59.56
68376;BME280;55318;52.068;5.188;2023-03-15T09:00:49;101858.0;;;11.18;55.8
68376;BME280;55318;52.068;5.188;2023-03-15T09:02:26;101857.0;;;11.24;59.34
68376;BME280;55318;52.068;5.188;2023-03-15T09:04:03;101859.0;;;11.27;59.2
68376;BME280;55318;52.068;5.188;2023-03-15T09:07:15;101859.0;;;11.22;62.32
68376;BME280;55318;52.068;5.188;2023-03-15T09:08:52;101869.0;;;11.13;65.35
68376;BME280;55318;52.068;5.188;2023-03-15T09:10:27;101861.0;;;10.95;63.57
68376;BME280;55318;52.068;5.188;2023-03-15T09:13:40;101868.0;;;11.1;56.49
68376;BME280;55318;52.068;5.188;2023-03-15T09:15:16;101866.0;;;11.1;58.08
68376;BME280;55318;52.068;5.188;2023-03-15T09:16:52;101863.0;;;11.03;55.46
68376;BME280;55318;52.068;5.188;2023-03-15T09:20:07;101867.0;;;11.19;57.15
68376;BME280;55318;52.068;5.188;2023-03-15T09:21:44;101864.0;;;11.14;56.76
68376;BME280;55318;52.068;5.188;2023-03-15T09:23:21;101862.0;;;10.91;57.42
68376;BME280;55318;52.068;5.188;2023-03-15T09:26:33;101862.0;;;10.84;57.21
68376;BME280;55318;52.068;5.188;2023-03-15T09:28:10;101863.0;;;10.62;55.37
68376;BME280;55318;52.068;5.188;2023-03-15T09:29:46;101858.0;;;10.73;59.07
68376;BME280;55318;52.068;5.188;2023-03-15T09:31:22;101859.0;;;10.93;60.13
68376;BME280;55318;52.068;5.188;2023-03-15T09:34:35;101864.0;;;11.13;60.53
68376;BME280;55318;52.068;5.188;2023-03-15T09:36:12;101859.0;;;10.95;55.57
68376;BME280;55318;52.068;5.188;2023-03-15T09:37:48;101865.0;;;11.08;56.49
68376;BME280;55318;52.068;5.188;2023-03-15T09:41:01;101873.0;;;11.05;56.72
68376;BME280;55318;52.068;5.188;2023-03-15T09:42:45;101875.0;;;11.12;55.16
68376;BME280;55318;52.068;5.188;2023-03-15T09:44:36;101872.0;;;11.29;56.85
68376;BME280;55318;52.068;5.188;2023-03-15T09:46:25;101870.0;;;11.22;57.91
68376;BME280;55318;52.068;5.188;2023-03-15T09:48:07;101874.0;;;11.12;53.96
68376;BME280;55318;52.068;5.188;2023-03-15T09:51:32;101875.0;;;11.17;57.02
68376;BME280;55318;52.068;5.188;2023-03-15T09:53:15;101873.0;;;11.11;54.8
68376;BME280;55318;52.068;5.188;2023-03-15T09:54:57;101873.0;;;11.11;54.84
68376;BME280;55318;52.068;5.188;2023-03-15T09:56:38;101880.0;;;11.18;54.48
68376;BME280;55318;52.068;5.188;2023-03-15T09:59:57;101882.0;;;11.26;55.61
68376;BME280;55318;52.068;5.188;2023-03-15T10:01:36;101878.0;;;11.25;53.1
68376;BME280;55318;52.068;5.188;2023-03-15T10:03:18;101877.0;;;10.92;54.77
68376;BME280;55318;52.068;5.188;2023-03-15T10:05:02;101882.0;;;10.9;58.12
68376;BME280;55318;52.068;5.188;2023-03-15T10:08:25;101877.0;;;10.94;55.7
68376;BME280;55318;52.068;5.188;2023-03-15T10:10:01;101880.0;;;11.12;56.18
68376;BME280;55318;52.068;5.188;2023-03-15T10:11:46;101876.0;;;11.14;54.58
68376;BME280;55318;52.068;5.188;2023-03-15T10:13:37;101875.0;;;11.01;56.94
68376;BME280;55318;52.068;5.188;2023-03-15T10:15:29;101881.0;;;10.92;53.66
68376;BME280;55318;52.068;5.188;2023-03-15T10:19:04;101880.0;;;10.85;55.88
68376;BME280;55318;52.068;5.188;2023-03-15T10:22:29;101876.0;;;11.01;52.77
68376;BME280;55318;52.068;5.188;2023-03-15T10:24:16;101882.0;;;11.13;55.03
68376;BME280;55318;52.068;5.188;2023-03-15T10:25:54;101884.0;;;10.99;52.5
68376;BME280;55318;52.068;5.188;2023-03-15T10:29:14;101887.0;;;10.87;54.23
68376;BME280;55318;52.068;5.188;2023-03-15T10:30:57;101889.0;;;10.67;54.6
68376;BME280;55318;52.068;5.188;2023-03-15T10:32:37;101881.0;;;10.69;52.74
68376;BME280;55318;52.068;5.188;2023-03-15T10:34:17;101890.0;;;10.63;54.58
68376;BME280;55318;52.068;5.188;2023-03-15T10:37:30;101889.0;;;10.66;54.7
68376;BME280;55318;52.068;5.188;2023-03-15T10:39:08;101896.0;;;10.79;57.7
68376;BME280;55318;52.068;5.188;2023-03-15T10:40:46;101896.0;;;10.64;53.36
68376;BME280;55318;52.068;5.188;2023-03-15T10:42:30;101896.0;;;10.7;52.88
68376;BME280;55318;52.068;5.188;2023-03-15T10:46:00;101901.0;;;10.57;51.68
68376;BME280;55318;52.068;5.188;2023-03-15T10:47:40;101902.0;;;10.61;53.33
68376;BME280;55318;52.068;5.188;2023-03-15T10:49:17;101905.0;;;10.54;53.14
68376;BME280;55318;52.068;5.188;2023-03-15T10:50:54;101907.0;;;10.19;51.14
68376;BME280;55318;52.068;5.188;2023-03-15T10:54:14;101913.0;;;10.25;53.17
68376;BME280;55318;52.068;5.188;2023-03-15T10:55:58;101923.0;;;9.99;51.03
68376;BME280;55318;52.068;5.188;2023-03-15T10:57:38;101926.0;;;10.09;51.2
68376;BME280;55318;52.068;5.188;2023-03-15T10:59:18;101928.0;;;10.02;51.34
68376;BME280;55318;52.068;5.188;2023-03-15T11:02:48;101927.0;;;9.97;51.38
68376;BME280;55318;52.068;5.188;2023-03-15T11:04:25;101923.0;;;9.89;52.85
68376;BME280;55318;52.068;5.188;2023-03-15T11:06:17;101924.0;;;9.73;50.18
68376;BME280;55318;52.068;5.188;2023-03-15T11:07:57;101922.0;;;9.63;49.98
68376;BME280;55318;52.068;5.188;2023-03-15T11:09:38;101927.0;;;9.75;50.74
68376;BME280;55318;52.068;5.188;2023-03-15T11:13:08;101941.0;;;9.83;51.73
68376;BME280;55318;52.068;5.188;2023-03-15T11:14:47;101942.0;;;9.99;52.54
68376;BME280;55318;52.068;5.188;2023-03-15T11:16:33;101940.0;;;9.78;49.55
68376;BME280;55318;52.068;5.188;2023-03-15T11:18:16;101942.0;;;9.91;50.18